sensor_id;sensor_type;location;lat;lon;timestamp;P1;durP1;ratioP1;P2;durP2;ratioP2
67986;SDS011;54767;53.800;15.956;2023-04-06T00:00:28;6.30;;;3.90;;
67986;SDS011;54767;53.800;15.956;2023-04-06T00:03:14;7.10;;;4.20;;
67986;SDS011;54767;53.800;15.956;2023-04-06T00:05:43;8.10;;;4.30;;
67986;SDS011;54767;53.800;15.956;2023-04-06T00:08:11;9.30;;;4.10;;
67986;SDS011;54767;53.800;15.956;2023-04-06T00:10:40;7.40;;;3.60;;
67986;SDS011;54767;53.800;15.956;2023-04-06T00:13:08;7.80;;;4.20;;
67986;SDS011;54767;53.800;15.956;2023-04-06T00:15:36;5.80;;;3.90;;
67986;SDS011;54767;53.800;15.956;2023-04-06T00:18:05;9.70;;;4.20;;
67986;SDS011;54767;53.800;15.956;2023-04-06T00:20:33;8.10;;;4.40;;
67986;SDS011;54767;53.800;15.956;2023-04-06T00:23:01;8.40;;;4.20;;
67986;SDS011;54767;53.800;15.956;2023-04-06T00:25:30;7.10;;;4.40;;
67986;SDS011;54767;53.800;15.956;2023-04-06T00:27:58;10.10;;;4.80;;
67986;SDS011;54767;53.800;15.956;2023-04-06T00:30:26;10.80;;;4.30;;
67986;SDS011;54767;53.800;15.956;2023-04-06T00:32:54;7.90;;;5.10;;
67986;SDS011;54767;53.800;15.956;2023-04-06T00:35:23;10.30;;;4.80;;
67986;SDS011;54767;53.800;15.956;2023-04-06T00:37:52;9.90;;;4.70;;
67986;SDS011;54767;53.800;15.956;2023-04-06T00:40:20;10.80;;;4.80;;
67986;SDS011;54767;53.800;15.956;2023-04-06T00:42:48;8.90;;;4.60;;
67986;SDS011;54767;53.800;15.956;2023-04-06T00:45:17;10.50;;;5.00;;
67986;SDS011;54767;53.800;15.956;2023-04-06T00:47:46;8.20;;;4.60;;
67986;SDS011;54767;53.800;15.956;2023-04-06T00:50:14;9.10;;;4.90;;
67986;SDS011;54767;53.800;15.956;2023-04-06T00:52:42;11.00;;;4.80;;
67986;SDS011;54767;53.800;15.956;2023-04-06T00:55:11;8.50;;;4.60;;
67986;SDS011;54767;53.800;15.956;2023-04-06T00:57:39;8.80;;;4.70;;
67986;SDS011;54767;53.800;15.956;2023-04-06T01:00:07;8.40;;;5.10;;
67986;SDS011;54767;53.800;15.956;2023-04-06T01:02:36;9.10;;;5.20;;
67986;SDS011;54767;53.800;15.956;2023-04-06T01:05:05;9.20;;;4.80;;
67986;SDS011;54767;53.800;15.956;2023-04-06T01:07:34;8.60;;;4.80;;
67986;SDS011;54767;53.800;15.956;2023-04-06T01:10:03;10.00;;;5.20;;
67986;SDS011;54767;53.800;15.956;2023-04-06T01:12:32;10.90;;;5.00;;
67986;SDS011;54767;53.800;15.956;2023-04-06T01:15:00;9.90;;;4.90;;
67986;SDS011;54767;53.800;15.956;2023-04-06T01:17:29;11.30;;;4.60;;
67986;SDS011;54767;53.800;15.956;2023-04-06T01:19:57;8.80;;;4.80;;
67986;SDS011;54767;53.800;15.956;2023-04-06T01:22:25;12.10;;;6.00;;
67986;SDS011;54767;53.800;15.956;2023-04-06T01:24:53;12.80;;;5.80;;
67986;SDS011;54767;53.800;15.956;2023-04-06T01:27:22;11.80;;;5.30;;
67986;SDS011;54767;53.800;15.956;2023-04-06T01:29:50;12.90;;;6.30;;
67986;SDS011;54767;53.800;15.956;2023-04-06T01:32:18;11.40;;;5.40;;
67986;SDS011;54767;53.800;15.956;2023-04-06T01:34:47;13.40;;;5.80;;
67986;SDS011;54767;53.800;15.956;2023-04-06T01:37:15;12.40;;;5.80;;
67986;SDS011;54767;53.800;15.956;2023-04-06T01:39:44;13.60;;;5.50;;
67986;SDS011;54767;53.800;15.956;2023-04-06T01:42:12;13.60;;;6.50;;
67986;SDS011;54767;53.800;15.956;2023-04-06T01:44:40;11.60;;;5.30;;
67986;SDS011;54767;53.800;15.956;2023-04-06T01:47:09;10.70;;;5.30;;
67986;SDS011;54767;53.800;15.956;2023-04-06T01:49:38;11.10;;;5.30;;
67986;SDS011;54767;53.800;15.956;2023-04-06T01:52:06;11.80;;;5.80;;
67986;SDS011;54767;53.800;15.956;2023-04-06T01:54:34;9.60;;;5.20;;
67986;SDS011;54767;53.800;15.956;2023-04-06T01:57:02;12.20;;;5.70;;
67986;SDS011;54767;53.800;15.956;2023-04-06T01:59:31;9.80;;;5.50;;
67986;SDS011;54767;53.800;15.956;2023-04-06T02:01:59;9.20;;;5.50;;
67986;SDS011;54767;53.800;15.956;2023-04-06T02:04:28;8.60;;;5.20;;
67986;SDS011;54767;53.800;15.956;2023-04-06T02:06:56;10.70;;;5.20;;
67986;SDS011;54767;53.800;15.956;2023-04-06T02:09:24;10.10;;;5.50;;
67986;SDS011;54767;53.800;15.956;2023-04-06T02:11:53;11.10;;;5.60;;
67986;SDS011;54767;53.800;15.956;2023-04-06T02:14:23;10.10;;;5.30;;
67986;SDS011;54767;53.800;15.956;2023-04-06T02:16:53;8.80;;;4.80;;
67986;SDS011;54767;53.800;15.956;2023-04-06T02:19:22;13.70;;;5.90;;
67986;SDS011;54767;53.800;15.956;2023-04-06T02:21:50;12.90;;;5.40;;
67986;SDS011;54767;53.800;15.956;2023-04-06T02:24:18;12.30;;;5.20;;
67986;SDS011;54767;53.800;15.956;2023-04-06T02:26:47;12.10;;;5.90;;
67986;SDS011;54767;53.800;15.956;2023-04-06T02:29:15;11.70;;;5.60;;
67986;SDS011;54767;53.800;15.956;2023-04-06T02:31:43;10.50;;;5.60;;
67986;SDS011;54767;53.800;15.956;2023-04-06T02:34:12;10.00;;;5.60;;
67986;SDS011;54767;53.800;15.956;2023-04-06T02:36:45;11.00;;;6.30;;
67986;SDS011;54767;53.800;15.956;2023-04-06T02:39:14;14.80;;;6.10;;
67986;SDS011;54767;53.800;15.956;2023-04-06T02:41:43;13.20;;;5.80;;
67986;SDS011;54767;53.800;15.956;2023-04-06T02:44:11;13.00;;;6.00;;
67986;SDS011;54767;53.800;15.956;2023-04-06T02:46:40;11.50;;;6.60;;
67986;SDS011;54767;53.800;15.956;2023-04-06T02:49:08;12.70;;;5.70;;
67986;SDS011;54767;53.800;15.956;2023-04-06T02:51:36;12.50;;;5.60;;
67986;SDS011;54767;53.800;15.956;2023-04-06T02:54:05;11.30;;;6.20;;
67986;SDS011;54767;53.800;15.956;2023-04-06T02:56:33;10.30;;;5.90;;
67986;SDS011;54767;53.800;15.956;2023-04-06T02:59:02;13.10;;;5.80;;
67986;SDS011;54767;53.800;15.956;2023-04-06T03:01:30;13.10;;;6.00;;
67986;SDS011;54767;53.800;15.956;2023-04-06T03:03:59;11.30;;;6.10;;
67986;SDS011;54767;53.800;15.956;2023-04-06T03:06:27;11.80;;;6.10;;
67986;SDS011;54767;53.800;15.956;2023-04-06T03:08:55;12.90;;;6.10;;
67986;SDS011;54767;53.800;15.956;2023-04-06T03:11:24;12.60;;;6.20;;
67986;SDS011;54767;53.800;15.956;2023-04-06T03:13:54;10.50;;;5.20;;
67986;SDS011;54767;53.800;15.956;2023-04-06T03:16:22;14.50;;;6.00;;
67986;SDS011;54767;53.800;15.956;2023-04-06T03:18:51;10.50;;;5.60;;
67986;SDS011;54767;53.800;15.956;2023-04-06T03:21:20;11.00;;;5.40;;
67986;SDS011;54767;53.800;15.956;2023-04-06T03:23:48;13.10;;;6.20;;
67986;SDS011;54767;53.800;15.956;2023-04-06T03:26:19;14.10;;;5.90;;
67986;SDS011;54767;53.800;15.956;2023-04-06T03:28:47;10.50;;;5.90;;
67986;SDS011;54767;53.800;15.956;2023-04-06T03:31:15;13.20;;;6.10;;
67986;SDS011;54767;53.800;15.956;2023-04-06T03:33:44;11.20;;;6.00;;
67986;SDS011;54767;53.800;15.956;2023-04-06T03:36:12;11.80;;;5.70;;
67986;SDS011;54767;53.800;15.956;2023-04-06T03:38:41;11.90;;;6.10;;
67986;SDS011;54767;53.800;15.956;2023-04-06T03:41:09;13.80;;;5.90;;
67986;SDS011;54767;53.800;15.956;2023-04-06T03:43:38;11.50;;;6.20;;
67986;SDS011;54767;53.800;15.956;2023-04-06T03:46:06;10.00;;;5.80;;
67986;SDS011;54767;53.800;15.956;2023-04-06T03:48:35;11.60;;;5.50;;
67986;SDS011;54767;53.800;15.956;2023-04-06T03:51:04;11.30;;;5.80;;
67986;SDS011;54767;53.800;15.956;2023-04-06T03:53:32;14.50;;;7.50;;
67986;SDS011;54767;53.800;15.956;2023-04-06T03:56:01;14.20;;;7.70;;
67986;SDS011;54767;53.800;15.956;2023-04-06T03:58:31;16.80;;;7.90;;
67986;SDS011;54767;53.800;15.956;2023-04-06T04:01:00;21.60;;;9.50;;
67986;SDS011;54767;53.800;15.956;2023-04-06T04:03:29;19.00;;;8.30;;
67986;SDS011;54767;53.800;15.956;2023-04-06T04:05:57;15.60;;;7.70;;
67986;SDS011;54767;53.800;15.956;2023-04-06T04:08:25;13.20;;;6.80;;
67986;SDS011;54767;53.800;15.956;2023-04-06T04:10:54;15.60;;;6.60;;
67986;SDS011;54767;53.800;15.956;2023-04-06T04:13:22;15.00;;;6.50;;
67986;SDS011;54767;53.800;15.956;2023-04-06T04:15:50;15.20;;;6.70;;
67986;SDS011;54767;53.800;15.956;2023-04-06T04:18:19;11.30;;;6.30;;
67986;SDS011;54767;53.800;15.956;2023-04-06T04:20:47;13.40;;;7.20;;
67986;SDS011;54767;53.800;15.956;2023-04-06T04:23:16;13.30;;;6.40;;
67986;SDS011;54767;53.800;15.956;2023-04-06T04:25:45;10.40;;;5.50;;
67986;SDS011;54767;53.800;15.956;2023-04-06T04:28:13;15.20;;;6.40;;
67986;SDS011;54767;53.800;15.956;2023-04-06T04:30:41;16.40;;;7.30;;
67986;SDS011;54767;53.800;15.956;2023-04-06T04:33:09;10.40;;;6.50;;
67986;SDS011;54767;53.800;15.956;2023-04-06T04:35:38;13.70;;;7.20;;
67986;SDS011;54767;53.800;15.956;2023-04-06T04:38:06;17.80;;;8.80;;
67986;SDS011;54767;53.800;15.956;2023-04-06T04:40:35;18.00;;;8.70;;
67986;SDS011;54767;53.800;15.956;2023-04-06T04:43:03;14.60;;;7.40;;
67986;SDS011;54767;53.800;15.956;2023-04-06T04:45:32;15.40;;;7.80;;
67986;SDS011;54767;53.800;15.956;2023-04-06T04:48:01;14.90;;;7.40;;
67986;SDS011;54767;53.800;15.956;2023-04-06T04:50:29;14.80;;;8.50;;
67986;SDS011;54767;53.800;15.956;2023-04-06T04:52:57;15.70;;;8.30;;
67986;SDS011;54767;53.800;15.956;2023-04-06T04:55:26;18.30;;;9.30;;
67986;SDS011;54767;53.800;15.956;2023-04-06T04:57:54;18.10;;;8.50;;
67986;SDS011;54767;53.800;15.956;2023-04-06T05:00:22;17.40;;;8.00;;
67986;SDS011;54767;53.800;15.956;2023-04-06T05:02:51;18.30;;;9.30;;
67986;SDS011;54767;53.800;15.956;2023-04-06T05:05:19;17.60;;;8.30;;
67986;SDS011;54767;53.800;15.956;2023-04-06T05:07:48;15.00;;;7.70;;
67986;SDS011;54767;53.800;15.956;2023-04-06T05:10:16;17.40;;;8.80;;
67986;SDS011;54767;53.800;15.956;2023-04-06T05:12:44;18.40;;;9.00;;
67986;SDS011;54767;53.800;15.956;2023-04-06T05:15:13;19.60;;;9.00;;
67986;SDS011;54767;53.800;15.956;2023-04-06T05:17:42;15.60;;;8.40;;
67986;SDS011;54767;53.800;15.956;2023-04-06T05:20:11;19.70;;;9.50;;
67986;SDS011;54767;53.800;15.956;2023-04-06T05:22:39;18.50;;;9.50;;
67986;SDS011;54767;53.800;15.956;2023-04-06T05:25:07;18.60;;;9.30;;
67986;SDS011;54767;53.800;15.956;2023-04-06T05:27:36;18.90;;;10.10;;
67986;SDS011;54767;53.800;15.956;2023-04-06T05:30:04;17.70;;;9.50;;
67986;SDS011;54767;53.800;15.956;2023-04-06T05:32:34;19.50;;;9.20;;
67986;SDS011;54767;53.800;15.956;2023-04-06T05:35:03;17.70;;;8.70;;
67986;SDS011;54767;53.800;15.956;2023-04-06T05:37:32;16.10;;;8.70;;
67986;SDS011;54767;53.800;15.956;2023-04-06T05:40:00;19.80;;;9.00;;
67986;SDS011;54767;53.800;15.956;2023-04-06T05:42:35;18.70;;;8.80;;
67986;SDS011;54767;53.800;15.956;2023-04-06T05:45:06;16.90;;;9.60;;
67986;SDS011;54767;53.800;15.956;2023-04-06T05:47:35;17.30;;;9.70;;
67986;SDS011;54767;53.800;15.956;2023-04-06T05:50:03;18.70;;;9.00;;
67986;SDS011;54767;53.800;15.956;2023-04-06T05:52:32;19.20;;;9.20;;
67986;SDS011;54767;53.800;15.956;2023-04-06T05:55:01;17.10;;;8.70;;
67986;SDS011;54767;53.800;15.956;2023-04-06T05:57:30;17.20;;;8.90;;
67986;SDS011;54767;53.800;15.956;2023-04-06T05:59:59;16.60;;;8.70;;
67986;SDS011;54767;53.800;15.956;2023-04-06T06:02:29;14.60;;;9.00;;
67986;SDS011;54767;53.800;15.956;2023-04-06T06:04:58;18.50;;;9.70;;
67986;SDS011;54767;53.800;15.956;2023-04-06T06:07:27;17.90;;;8.50;;
67986;SDS011;54767;53.800;15.956;2023-04-06T06:09:56;18.60;;;9.40;;
67986;SDS011;54767;53.800;15.956;2023-04-06T06:14:54;19.00;;;8.90;;
67986;SDS011;54767;53.800;15.956;2023-04-06T06:17:23;16.90;;;9.70;;
67986;SDS011;54767;53.800;15.956;2023-04-06T06:19:51;22.10;;;10.40;;
67986;SDS011;54767;53.800;15.956;2023-04-06T06:22:19;22.00;;;10.40;;
67986;SDS011;54767;53.800;15.956;2023-04-06T06:24:48;18.50;;;9.50;;
67986;SDS011;54767;53.800;15.956;2023-04-06T06:27:17;16.20;;;9.30;;
67986;SDS011;54767;53.800;15.956;2023-04-06T06:29:46;17.80;;;9.20;;
67986;SDS011;54767;53.800;15.956;2023-04-06T06:32:14;21.20;;;10.00;;
67986;SDS011;54767;53.800;15.956;2023-04-06T06:34:43;23.20;;;10.30;;
67986;SDS011;54767;53.800;15.956;2023-04-06T06:37:12;19.50;;;9.90;;
67986;SDS011;54767;53.800;15.956;2023-04-06T06:39:40;20.00;;;9.50;;
67986;SDS011;54767;53.800;15.956;2023-04-06T06:42:08;20.20;;;10.30;;
67986;SDS011;54767;53.800;15.956;2023-04-06T06:44:36;24.90;;;11.80;;
67986;SDS011;54767;53.800;15.956;2023-04-06T06:47:05;22.50;;;11.70;;
67986;SDS011;54767;53.800;15.956;2023-04-06T06:49:33;20.00;;;10.10;;
67986;SDS011;54767;53.800;15.956;2023-04-06T06:52:01;19.00;;;9.90;;
67986;SDS011;54767;53.800;15.956;2023-04-06T06:54:30;17.80;;;10.50;;
67986;SDS011;54767;53.800;15.956;2023-04-06T06:56:58;18.20;;;10.50;;
67986;SDS011;54767;53.800;15.956;2023-04-06T06:59:28;19.80;;;10.00;;
67986;SDS011;54767;53.800;15.956;2023-04-06T07:01:56;20.30;;;10.30;;
67986;SDS011;54767;53.800;15.956;2023-04-06T07:04:25;20.00;;;9.70;;
67986;SDS011;54767;53.800;15.956;2023-04-06T07:06:54;19.70;;;11.00;;
67986;SDS011;54767;53.800;15.956;2023-04-06T07:09:22;19.30;;;10.20;;
67986;SDS011;54767;53.800;15.956;2023-04-06T07:11:51;28.20;;;13.90;;
67986;SDS011;54767;53.800;15.956;2023-04-06T07:14:19;24.30;;;12.80;;
67986;SDS011;54767;53.800;15.956;2023-04-06T07:16:47;17.90;;;10.80;;
67986;SDS011;54767;53.800;15.956;2023-04-06T07:19:18;19.50;;;10.90;;
67986;SDS011;54767;53.800;15.956;2023-04-06T07:21:46;19.80;;;11.40;;
67986;SDS011;54767;53.800;15.956;2023-04-06T07:24:14;21.20;;;11.80;;
67986;SDS011;54767;53.800;15.956;2023-04-06T07:26:43;20.50;;;11.50;;
67986;SDS011;54767;53.800;15.956;2023-04-06T07:29:11;20.90;;;10.00;;
67986;SDS011;54767;53.800;15.956;2023-04-06T07:31:40;15.90;;;9.30;;
67986;SDS011;54767;53.800;15.956;2023-04-06T07:34:09;14.70;;;8.20;;
67986;SDS011;54767;53.800;15.956;2023-04-06T07:36:37;16.00;;;8.50;;
67986;SDS011;54767;53.800;15.956;2023-04-06T07:39:06;14.90;;;8.60;;
67986;SDS011;54767;53.800;15.956;2023-04-06T07:41:35;16.20;;;9.80;;
67986;SDS011;54767;53.800;15.956;2023-04-06T07:44:03;15.70;;;8.90;;
67986;SDS011;54767;53.800;15.956;2023-04-06T07:46:32;15.00;;;8.30;;
67986;SDS011;54767;53.800;15.956;2023-04-06T07:49:02;15.30;;;8.50;;
67986;SDS011;54767;53.800;15.956;2023-04-06T07:51:31;14.80;;;8.10;;
67986;SDS011;54767;53.800;15.956;2023-04-06T07:53:59;18.50;;;7.90;;
67986;SDS011;54767;53.800;15.956;2023-04-06T07:56:28;16.20;;;8.50;;
67986;SDS011;54767;53.800;15.956;2023-04-06T07:58:56;13.10;;;8.10;;
67986;SDS011;54767;53.800;15.956;2023-04-06T08:01:27;16.30;;;9.30;;
67986;SDS011;54767;53.800;15.956;2023-04-06T08:03:56;23.60;;;11.00;;
67986;SDS011;54767;53.800;15.956;2023-04-06T08:06:25;18.60;;;9.40;;
67986;SDS011;54767;53.800;15.956;2023-04-06T08:08:54;20.40;;;10.90;;
67986;SDS011;54767;53.800;15.956;2023-04-06T08:11:22;24.50;;;12.60;;
67986;SDS011;54767;53.800;15.956;2023-04-06T08:13:51;28.40;;;11.90;;
67986;SDS011;54767;53.800;15.956;2023-04-06T08:16:19;16.20;;;8.50;;
67986;SDS011;54767;53.800;15.956;2023-04-06T08:18:48;18.70;;;9.80;;
67986;SDS011;54767;53.800;15.956;2023-04-06T08:21:16;16.50;;;8.70;;
67986;SDS011;54767;53.800;15.956;2023-04-06T08:23:45;15.80;;;8.20;;
67986;SDS011;54767;53.800;15.956;2023-04-06T08:26:14;13.60;;;7.40;;
67986;SDS011;54767;53.800;15.956;2023-04-06T08:28:42;13.00;;;7.20;;
67986;SDS011;54767;53.800;15.956;2023-04-06T08:31:13;22.80;;;10.90;;
67986;SDS011;54767;53.800;15.956;2023-04-06T08:33:42;18.80;;;9.90;;
67986;SDS011;54767;53.800;15.956;2023-04-06T08:36:14;23.50;;;10.70;;
67986;SDS011;54767;53.800;15.956;2023-04-06T08:38:44;25.80;;;12.70;;
67986;SDS011;54767;53.800;15.956;2023-04-06T08:41:13;25.40;;;11.70;;
67986;SDS011;54767;53.800;15.956;2023-04-06T08:46:16;16.20;;;8.40;;
67986;SDS011;54767;53.800;15.956;2023-04-06T08:48:45;34.20;;;13.40;;
67986;SDS011;54767;53.800;15.956;2023-04-06T08:51:17;15.90;;;7.60;;
67986;SDS011;54767;53.800;15.956;2023-04-06T08:53:47;22.60;;;10.90;;
67986;SDS011;54767;53.800;15.956;2023-04-06T08:56:16;16.80;;;9.50;;
67986;SDS011;54767;53.800;15.956;2023-04-06T08:58:45;12.80;;;7.20;;
67986;SDS011;54767;53.800;15.956;2023-04-06T09:01:14;11.90;;;6.60;;
67986;SDS011;54767;53.800;15.956;2023-04-06T09:03:46;11.80;;;7.60;;
67986;SDS011;54767;53.800;15.956;2023-04-06T09:06:16;13.30;;;7.30;;
67986;SDS011;54767;53.800;15.956;2023-04-06T09:08:45;13.90;;;8.00;;
67986;SDS011;54767;53.800;15.956;2023-04-06T09:11:14;14.90;;;7.70;;
67986;SDS011;54767;53.800;15.956;2023-04-06T09:13:49;12.80;;;6.30;;
67986;SDS011;54767;53.800;15.956;2023-04-06T09:16:18;11.40;;;5.90;;
67986;SDS011;54767;53.800;15.956;2023-04-06T09:18:48;11.10;;;5.50;;
67986;SDS011;54767;53.800;15.956;2023-04-06T09:21:18;7.50;;;5.50;;
67986;SDS011;54767;53.800;15.956;2023-04-06T09:23:58;10.80;;;5.50;;
67986;SDS011;54767;53.800;15.956;2023-04-06T09:26:28;11.80;;;6.60;;
67986;SDS011;54767;53.800;15.956;2023-04-06T09:28:59;11.40;;;6.80;;
67986;SDS011;54767;53.800;15.956;2023-04-06T09:31:39;9.10;;;4.90;;
67986;SDS011;54767;53.800;15.956;2023-04-06T09:34:08;10.30;;;5.60;;
67986;SDS011;54767;53.800;15.956;2023-04-06T09:36:46;9.20;;;5.60;;
67986;SDS011;54767;53.800;15.956;2023-04-06T09:39:15;11.90;;;7.10;;
67986;SDS011;54767;53.800;15.956;2023-04-06T09:41:51;10.10;;;6.50;;
67986;SDS011;54767;53.800;15.956;2023-04-06T09:44:30;10.70;;;5.90;;
67986;SDS011;54767;53.800;15.956;2023-04-06T09:47:03;8.90;;;5.30;;
67986;SDS011;54767;53.800;15.956;2023-04-06T09:49:35;13.10;;;6.30;;
67986;SDS011;54767;53.800;15.956;2023-04-06T09:52:04;10.80;;;6.40;;
67986;SDS011;54767;53.800;15.956;2023-04-06T09:54:36;12.70;;;7.00;;
67986;SDS011;54767;53.800;15.956;2023-04-06T09:57:21;12.20;;;7.10;;
67986;SDS011;54767;53.800;15.956;2023-04-06T10:07:58;17.80;;;8.80;;
67986;SDS011;54767;53.800;15.956;2023-04-06T10:10:30;9.60;;;5.20;;
67986;SDS011;54767;53.800;15.956;2023-04-06T10:12:58;7.90;;;5.10;;
67986;SDS011;54767;53.800;15.956;2023-04-06T10:15:31;7.70;;;4.90;;
67986;SDS011;54767;53.800;15.956;2023-04-06T10:18:00;10.00;;;5.30;;
67986;SDS011;54767;53.800;15.956;2023-04-06T10:20:38;9.40;;;5.80;;
67986;SDS011;54767;53.800;15.956;2023-04-06T10:23:32;8.70;;;5.20;;
67986;SDS011;54767;53.800;15.956;2023-04-06T10:26:04;10.10;;;6.20;;
67986;SDS011;54767;53.800;15.956;2023-04-06T10:28:34;16.10;;;7.80;;
67986;SDS011;54767;53.800;15.956;2023-04-06T10:31:06;8.90;;;4.80;;
67986;SDS011;54767;53.800;15.956;2023-04-06T10:33:35;8.20;;;4.40;;
67986;SDS011;54767;53.800;15.956;2023-04-06T10:36:22;7.70;;;4.70;;
67986;SDS011;54767;53.800;15.956;2023-04-06T10:39:01;7.40;;;5.50;;
67986;SDS011;54767;53.800;15.956;2023-04-06T10:41:35;7.50;;;4.80;;
67986;SDS011;54767;53.800;15.956;2023-04-06T10:44:19;8.90;;;4.40;;
67986;SDS011;54767;53.800;15.956;2023-04-06T10:46:57;6.80;;;4.10;;
67986;SDS011;54767;53.800;15.956;2023-04-06T10:49:29;6.50;;;4.10;;
67986;SDS011;54767;53.800;15.956;2023-04-06T10:51:57;7.80;;;4.50;;
67986;SDS011;54767;53.800;15.956;2023-04-06T10:54:26;7.00;;;4.30;;
67986;SDS011;54767;53.800;15.956;2023-04-06T10:56:55;7.20;;;4.60;;
67986;SDS011;54767;53.800;15.956;2023-04-06T10:59:24;8.90;;;5.80;;
67986;SDS011;54767;53.800;15.956;2023-04-06T11:01:53;21.90;;;5.50;;
67986;SDS011;54767;53.800;15.956;2023-04-06T11:04:24;8.60;;;4.80;;
67986;SDS011;54767;53.800;15.956;2023-04-06T11:06:53;7.10;;;4.70;;
67986;SDS011;54767;53.800;15.956;2023-04-06T11:09:26;9.40;;;4.90;;
67986;SDS011;54767;53.800;15.956;2023-04-06T11:11:56;12.60;;;6.60;;
67986;SDS011;54767;53.800;15.956;2023-04-06T11:14:24;7.70;;;5.30;;
67986;SDS011;54767;53.800;15.956;2023-04-06T11:16:54;10.80;;;5.70;;
67986;SDS011;54767;53.800;15.956;2023-04-06T11:19:23;8.10;;;5.40;;
67986;SDS011;54767;53.800;15.956;2023-04-06T11:21:51;11.10;;;5.60;;
67986;SDS011;54767;53.800;15.956;2023-04-06T11:24:21;7.10;;;4.90;;
67986;SDS011;54767;53.800;15.956;2023-04-06T11:26:55;7.90;;;4.80;;
67986;SDS011;54767;53.800;15.956;2023-04-06T11:29:28;6.80;;;4.30;;
67986;SDS011;54767;53.800;15.956;2023-04-06T11:31:59;12.60;;;5.10;;
67986;SDS011;54767;53.800;15.956;2023-04-06T11:34:29;7.00;;;5.00;;
67986;SDS011;54767;53.800;15.956;2023-04-06T11:37:17;8.30;;;5.30;;
67986;SDS011;54767;53.800;15.956;2023-04-06T11:39:47;10.10;;;5.40;;
67986;SDS011;54767;53.800;15.956;2023-04-06T11:42:21;9.70;;;5.20;;
67986;SDS011;54767;53.800;15.956;2023-04-06T11:44:54;14.80;;;5.80;;
67986;SDS011;54767;53.800;15.956;2023-04-06T11:47:32;8.50;;;4.50;;
67986;SDS011;54767;53.800;15.956;2023-04-06T11:50:08;6.70;;;4.20;;
67986;SDS011;54767;53.800;15.956;2023-04-06T11:52:39;6.90;;;4.60;;
67986;SDS011;54767;53.800;15.956;2023-04-06T11:55:12;4.70;;;3.90;;
67986;SDS011;54767;53.800;15.956;2023-04-06T11:57:45;9.90;;;5.10;;
67986;SDS011;54767;53.800;15.956;2023-04-06T12:00:14;9.40;;;5.10;;
67986;SDS011;54767;53.800;15.956;2023-04-06T12:02:46;9.70;;;5.30;;
67986;SDS011;54767;53.800;15.956;2023-04-06T12:05:16;9.10;;;5.20;;
67986;SDS011;54767;53.800;15.956;2023-04-06T12:07:44;9.20;;;5.90;;
67986;SDS011;54767;53.800;15.956;2023-04-06T12:10:13;6.70;;;4.60;;
67986;SDS011;54767;53.800;15.956;2023-04-06T12:12:42;8.10;;;5.00;;
67986;SDS011;54767;53.800;15.956;2023-04-06T12:15:11;8.00;;;4.70;;
67986;SDS011;54767;53.800;15.956;2023-04-06T12:17:39;7.40;;;4.40;;
67986;SDS011;54767;53.800;15.956;2023-04-06T12:20:08;8.40;;;4.80;;
67986;SDS011;54767;53.800;15.956;2023-04-06T12:22:52;9.50;;;4.80;;
67986;SDS011;54767;53.800;15.956;2023-04-06T12:25:20;8.60;;;4.60;;
67986;SDS011;54767;53.800;15.956;2023-04-06T12:27:49;7.90;;;4.60;;
67986;SDS011;54767;53.800;15.956;2023-04-06T12:30:18;5.60;;;4.00;;
67986;SDS011;54767;53.800;15.956;2023-04-06T12:32:46;5.80;;;4.00;;
67986;SDS011;54767;53.800;15.956;2023-04-06T12:35:18;7.20;;;4.20;;
67986;SDS011;54767;53.800;15.956;2023-04-06T12:37:46;9.20;;;5.60;;
67986;SDS011;54767;53.800;15.956;2023-04-06T12:40:16;18.50;;;12.90;;
67986;SDS011;54767;53.800;15.956;2023-04-06T12:42:44;11.40;;;8.50;;
67986;SDS011;54767;53.800;15.956;2023-04-06T12:45:14;9.00;;;5.70;;
67986;SDS011;54767;53.800;15.956;2023-04-06T12:50:12;6.10;;;4.10;;
67986;SDS011;54767;53.800;15.956;2023-04-06T12:52:40;8.60;;;5.00;;
67986;SDS011;54767;53.800;15.956;2023-04-06T12:55:08;7.50;;;4.20;;
67986;SDS011;54767;53.800;15.956;2023-04-06T12:57:37;8.20;;;4.90;;
67986;SDS011;54767;53.800;15.956;2023-04-06T13:00:06;7.20;;;4.20;;
67986;SDS011;54767;53.800;15.956;2023-04-06T13:02:36;7.70;;;5.40;;
67986;SDS011;54767;53.800;15.956;2023-04-06T13:05:05;10.50;;;4.50;;
67986;SDS011;54767;53.800;15.956;2023-04-06T13:07:33;6.30;;;4.00;;
67986;SDS011;54767;53.800;15.956;2023-04-06T13:10:01;7.50;;;4.10;;
67986;SDS011;54767;53.800;15.956;2023-04-06T13:12:30;5.00;;;3.90;;
67986;SDS011;54767;53.800;15.956;2023-04-06T13:14:58;5.10;;;3.70;;
67986;SDS011;54767;53.800;15.956;2023-04-06T13:17:28;4.90;;;3.70;;
67986;SDS011;54767;53.800;15.956;2023-04-06T13:19:56;7.80;;;4.50;;
67986;SDS011;54767;53.800;15.956;2023-04-06T13:22:24;5.70;;;4.00;;
67986;SDS011;54767;53.800;15.956;2023-04-06T13:24:53;8.10;;;4.40;;
67986;SDS011;54767;53.800;15.956;2023-04-06T13:27:22;4.50;;;3.70;;
67986;SDS011;54767;53.800;15.956;2023-04-06T13:29:50;5.80;;;3.60;;
67986;SDS011;54767;53.800;15.956;2023-04-06T13:32:19;4.40;;;3.50;;
67986;SDS011;54767;53.800;15.956;2023-04-06T13:34:47;5.70;;;3.90;;
67986;SDS011;54767;53.800;15.956;2023-04-06T13:37:16;5.60;;;3.70;;
67986;SDS011;54767;53.800;15.956;2023-04-06T13:39:45;5.50;;;3.60;;
67986;SDS011;54767;53.800;15.956;2023-04-06T13:42:13;4.50;;;3.60;;
67986;SDS011;54767;53.800;15.956;2023-04-06T13:44:41;8.00;;;4.40;;
67986;SDS011;54767;53.800;15.956;2023-04-06T13:47:09;9.90;;;5.10;;
67986;SDS011;54767;53.800;15.956;2023-04-06T13:49:38;6.80;;;3.90;;
67986;SDS011;54767;53.800;15.956;2023-04-06T13:52:06;6.20;;;4.10;;
67986;SDS011;54767;53.800;15.956;2023-04-06T13:54:35;5.40;;;4.00;;
67986;SDS011;54767;53.800;15.956;2023-04-06T13:57:03;5.30;;;3.70;;
67986;SDS011;54767;53.800;15.956;2023-04-06T13:59:36;8.70;;;4.30;;
67986;SDS011;54767;53.800;15.956;2023-04-06T14:02:05;6.70;;;3.70;;
67986;SDS011;54767;53.800;15.956;2023-04-06T14:04:35;4.70;;;3.30;;
67986;SDS011;54767;53.800;15.956;2023-04-06T14:07:04;5.90;;;3.80;;
67986;SDS011;54767;53.800;15.956;2023-04-06T14:09:35;5.20;;;4.10;;
67986;SDS011;54767;53.800;15.956;2023-04-06T14:12:03;6.20;;;4.00;;
67986;SDS011;54767;53.800;15.956;2023-04-06T14:14:31;5.40;;;4.20;;
67986;SDS011;54767;53.800;15.956;2023-04-06T14:17:00;8.50;;;4.50;;
67986;SDS011;54767;53.800;15.956;2023-04-06T14:19:28;6.50;;;4.20;;
67986;SDS011;54767;53.800;15.956;2023-04-06T14:21:57;6.40;;;3.90;;
67986;SDS011;54767;53.800;15.956;2023-04-06T14:24:25;5.40;;;4.00;;
67986;SDS011;54767;53.800;15.956;2023-04-06T14:26:54;7.50;;;4.50;;
67986;SDS011;54767;53.800;15.956;2023-04-06T14:29:23;7.30;;;4.10;;
67986;SDS011;54767;53.800;15.956;2023-04-06T14:31:52;5.60;;;4.30;;
67986;SDS011;54767;53.800;15.956;2023-04-06T14:34:20;4.30;;;3.50;;
67986;SDS011;54767;53.800;15.956;2023-04-06T14:36:49;6.30;;;3.70;;
67986;SDS011;54767;53.800;15.956;2023-04-06T14:39:17;10.60;;;5.40;;
67986;SDS011;54767;53.800;15.956;2023-04-06T14:41:46;8.20;;;4.30;;
67986;SDS011;54767;53.800;15.956;2023-04-06T14:44:17;5.90;;;3.70;;
67986;SDS011;54767;53.800;15.956;2023-04-06T14:46:46;4.70;;;3.50;;
67986;SDS011;54767;53.800;15.956;2023-04-06T14:49:14;5.30;;;3.50;;
67986;SDS011;54767;53.800;15.956;2023-04-06T14:51:43;5.80;;;3.70;;
67986;SDS011;54767;53.800;15.956;2023-04-06T14:54:11;7.50;;;4.30;;